Time;durP1;ratioP1;P1;durP2;ratioP2;P2;SDS_P1;SDS_P2;PMS_P1;PMS_P2;Temp;Humidity;BMP_temperature;BMP_pressure;BME280_temperature;BME280_humidity;BME280_pressure;Samples;Min_cycle;Max_cycle;Signal;HPM_P1;HPM_P2
2021/09/17 00:02:00;;;;;;;5.50;4.63;;;21.80;93.90;;;;;;5059477;28;20481;-79
2021/09/17 00:04:26;;;;;;;6.13;4.55;;;21.80;93.90;;;;;;5062262;28;20024;-87
2021/09/17 00:06:52;;;;;;;6.30;5.13;;;21.70;93.80;;;;;;5073643;28;20071;-88
2021/09/17 00:09:20;;;;;;;6.68;4.53;;;21.80;93.80;;;;;;5073126;28;20025;-80
2021/09/17 00:11:45;;;;;;;5.90;4.90;;;21.70;93.80;;;;;;5073434;28;20467;-86
2021/09/17 00:14:11;;;;;;;6.97;5.70;;;21.70;93.80;;;;;;5073229;28;20096;-86
2021/09/17 00:16:37;;;;;;;6.38;5.25;;;21.70;93.80;;;;;;5073534;28;20447;-87
2021/09/17 00:19:02;;;;;;;5.70;5.07;;;21.70;93.80;;;;;;5073871;28;20426;-88
2021/09/17 00:21:28;;;;;;;6.28;5.47;;;21.70;93.70;;;;;;5066870;28;20111;-86
2021/09/17 00:23:54;;;;;;;6.93;5.43;;;21.70;93.70;;;;;;5060107;28;20113;-84
2021/09/17 00:26:19;;;;;;;6.95;4.97;;;21.70;93.70;;;;;;5072335;28;20090;-82
2021/09/17 00:28:47;;;;;;;7.53;5.88;;;21.70;93.70;;;;;;5073560;28;20021;-88
2021/09/17 00:31:13;;;;;;;8.02;6.00;;;21.70;93.70;;;;;;5073610;28;20032;-87
2021/09/17 00:33:39;;;;;;;7.25;5.53;;;21.70;93.60;;;;;;5073318;28;20429;-89
2021/09/17 00:36:04;;;;;;;9.75;5.50;;;21.70;93.60;;;;;;5068147;28;20094;-85
2021/09/17 00:38:30;;;;;;;7.40;5.75;;;21.70;93.60;;;;;;5053686;28;20477;-84
2021/09/17 00:40:56;;;;;;;6.25;5.38;;;21.70;93.60;;;;;;5053211;28;20037;-86
2021/09/17 00:43:21;;;;;;;6.03;5.07;;;21.70;93.60;;;;;;5053135;28;20064;-87
2021/09/17 00:45:47;;;;;;;6.80;5.63;;;21.60;93.50;;;;;;5052855;28;20029;-85
2021/09/17 00:48:13;;;;;;;7.63;5.20;;;21.60;93.50;;;;;;5052868;28;20021;-84
2021/09/17 00:50:39;;;;;;;8.32;6.07;;;21.60;93.50;;;;;;5053813;28;20415;-84
2021/09/17 00:53:05;;;;;;;7.10;5.00;;;21.70;93.50;;;;;;5063673;28;20032;-86
2021/09/17 00:55:32;;;;;;;7.43;5.85;;;21.60;93.50;;;;;;5072566;28;20107;-73
2021/09/17 00:57:57;;;;;;;7.65;5.85;;;21.60;93.40;;;;;;5072561;28;20035;-81
2021/09/17 01:00:23;;;;;;;9.65;5.72;;;21.60;93.40;;;;;;5072657;28;20045;-83
2021/09/17 01:02:49;;;;;;;6.72;5.43;;;21.60;93.40;;;;;;5071611;28;20487;-87
2021/09/17 01:05:15;;;;;;;7.13;5.82;;;21.60;93.30;;;;;;5062274;28;20025;-85
2021/09/17 01:07:44;;;;;;;7.10;5.25;;;21.60;93.30;;;;;;5069752;28;20500;-83
2021/09/17 01:10:11;;;;;;;8.18;6.05;;;21.60;93.30;;;;;;5055182;28;20033;-82
2021/09/17 01:12:38;;;;;;;7.18;5.72;;;21.60;93.30;;;;;;5069008;28;20029;-81
2021/09/17 01:15:08;;;;;;;7.88;5.70;;;21.60;93.30;;;;;;5072622;28;20021;-76
2021/09/17 01:17:40;;;;;;;8.52;5.25;;;21.60;93.30;;;;;;5070244;28;20017;-78
2021/09/17 01:20:09;;;;;;;7.32;5.60;;;21.60;93.30;;;;;;5072619;28;20033;-76
2021/09/17 01:22:35;;;;;;;9.30;6.25;;;21.60;93.30;;;;;;5060744;28;20025;-76
2021/09/17 01:25:01;;;;;;;8.00;5.78;;;21.50;93.20;;;;;;5059419;28;20035;-77
2021/09/17 01:27:27;;;;;;;8.85;6.43;;;21.50;93.20;;;;;;5071882;28;20108;-76
2021/09/17 01:29:53;;;;;;;7.43;5.22;;;21.50;93.20;;;;;;5072022;28;20540;-75
2021/09/17 01:32:19;;;;;;;8.10;6.30;;;21.60;93.20;;;;;;5072338;28;20028;-76
2021/09/17 01:34:45;;;;;;;7.97;5.72;;;21.50;93.10;;;;;;5071826;28;20024;-75
2021/09/17 01:37:11;;;;;;;7.80;5.95;;;21.50;93.10;;;;;;5056864;28;20455;-86
2021/09/17 01:39:37;;;;;;;7.47;5.88;;;21.50;93.00;;;;;;5051538;28;20029;-77
2021/09/17 01:42:02;;;;;;;8.27;5.93;;;21.50;93.10;;;;;;5052163;28;20037;-76
2021/09/17 01:44:28;;;;;;;7.78;5.70;;;21.50;93.00;;;;;;5070925;28;20017;-76
2021/09/17 01:46:54;;;;;;;7.78;5.88;;;21.50;93.00;;;;;;5069128;28;20043;-79
2021/09/17 01:49:19;;;;;;;7.80;6.05;;;21.50;93.00;;;;;;5071304;28;20078;-79
2021/09/17 01:51:45;;;;;;;7.18;5.90;;;21.50;92.90;;;;;;5056019;28;20040;-79
2021/09/17 01:54:11;;;;;;;9.60;5.97;;;21.50;92.90;;;;;;5059521;28;20027;-80
2021/09/17 01:56:36;;;;;;;7.35;6.38;;;21.50;92.90;;;;;;5065303;28;20055;-76
2021/09/17 01:59:03;;;;;;;7.95;6.45;;;21.50;92.80;;;;;;5071114;28;20039;-78
2021/09/17 02:01:29;;;;;;;7.88;6.38;;;21.50;92.80;;;;;;5071243;28;20082;-77
2021/09/17 02:03:54;;;;;;;8.40;6.35;;;21.50;92.80;;;;;;5071541;28;20021;-77
2021/09/17 02:06:22;;;;;;;7.57;6.03;;;21.50;92.80;;;;;;5071549;28;20106;-77
2021/09/17 02:08:48;;;;;;;7.80;5.90;;;21.40;92.70;;;;;;5070546;28;20541;-78
2021/09/17 02:11:14;;;;;;;7.68;5.88;;;21.50;92.80;;;;;;5071409;28;20115;-82
2021/09/17 02:13:39;;;;;;;9.23;6.53;;;21.50;92.70;;;;;;5070784;28;20582;-79
2021/09/17 02:16:05;;;;;;;7.07;6.20;;;21.40;92.70;;;;;;5052617;28;20021;-75
2021/09/17 02:18:31;;;;;;;8.88;6.50;;;21.40;92.70;;;;;;5057114;28;20476;-75
2021/09/17 02:20:57;;;;;;;8.73;6.68;;;21.40;92.60;;;;;;5070920;28;20040;-77
2021/09/17 02:23:22;;;;;;;8.77;6.07;;;21.50;92.60;;;;;;5058320;28;20108;-75
2021/09/17 02:25:48;;;;;;;9.98;5.93;;;21.40;92.60;;;;;;5059492;28;20099;-75
2021/09/17 02:28:13;;;;;;;8.30;6.97;;;21.40;92.60;;;;;;5071328;28;20025;-77
2021/09/17 02:30:39;;;;;;;8.30;6.63;;;21.40;92.50;;;;;;5071193;28;20024;-76
2021/09/17 02:33:05;;;;;;;8.00;6.47;;;21.40;92.50;;;;;;5071416;28;20021;-80
2021/09/17 02:35:31;;;;;;;7.20;5.70;;;21.40;92.50;;;;;;5069997;28;20369;-80
2021/09/17 02:37:56;;;;;;;8.57;6.47;;;21.40;92.50;;;;;;5051098;28;20461;-82
2021/09/17 02:40:22;;;;;;;6.20;5.47;;;21.40;92.50;;;;;;5050017;28;20427;-75
2021/09/17 02:42:48;;;;;;;6.22;5.25;;;21.40;92.40;;;;;;5059508;28;20025;-76
2021/09/17 02:45:15;;;;;;;6.70;5.28;;;21.40;92.40;;;;;;5071148;28;20074;-75
2021/09/17 02:47:41;;;;;;;8.50;6.00;;;21.40;92.40;;;;;;5070272;28;20039;-81
2021/09/17 02:50:08;;;;;;;8.00;6.13;;;21.40;92.40;;;;;;5071199;28;20029;-79
2021/09/17 02:52:33;;;;;;;6.80;5.22;;;21.30;92.40;;;;;;5066977;28;20028;-77
2021/09/17 02:54:59;;;;;;;7.10;5.70;;;21.30;92.40;;;;;;5065280;28;20039;-79
2021/09/17 02:57:25;;;;;;;8.07;5.88;;;21.30;92.30;;;;;;5070513;28;20027;-75
2021/09/17 02:59:50;;;;;;;8.30;5.57;;;21.30;92.30;;;;;;5070803;28;20033;-81
2021/09/17 03:02:16;;;;;;;7.72;5.93;;;21.30;92.30;;;;;;5070463;28;20063;-82
2021/09/17 03:04:42;;;;;;;7.10;5.60;;;21.30;92.30;;;;;;5070639;28;20032;-77
2021/09/17 03:07:08;;;;;;;7.00;5.60;;;21.30;92.20;;;;;;5070832;28;20013;-76
2021/09/17 03:09:33;;;;;;;7.15;5.60;;;21.30;92.20;;;;;;5069104;28;20432;-80
2021/09/17 03:11:59;;;;;;;7.50;5.70;;;21.30;92.20;;;;;;5050845;28;20037;-80
2021/09/17 03:14:25;;;;;;;7.13;5.63;;;21.30;92.20;;;;;;5050557;28;20052;-76
2021/09/17 03:16:51;;;;;;;6.40;5.38;;;21.30;92.10;;;;;;5050576;28;20489;-79
2021/09/17 03:19:18;;;;;;;6.68;5.38;;;21.30;92.10;;;;;;5050687;28;20085;-81
2021/09/17 03:21:44;;;;;;;7.70;5.50;;;21.30;92.10;;;;;;5050247;28;20025;-81
2021/09/17 03:24:10;;;;;;;8.07;5.80;;;21.30;92.10;;;;;;5050386;28;20044;-79
2021/09/17 03:26:36;;;;;;;6.65;5.60;;;21.30;92.10;;;;;;5051171;28;20021;-78
2021/09/17 03:29:03;;;;;;;7.70;5.95;;;21.30;92.10;;;;;;5069537;28;20035;-75
2021/09/17 03:31:29;;;;;;;7.18;5.75;;;21.30;92.00;;;;;;5071599;28;20028;-74
2021/09/17 03:33:55;;;;;;;6.35;4.95;;;21.20;92.00;;;;;;5071009;28;20032;-80
2021/09/17 03:36:21;;;;;;;7.15;5.13;;;21.30;92.00;;;;;;5071178;28;20074;-76
2021/09/17 03:38:47;;;;;;;5.45;4.68;;;21.30;92.00;;;;;;5070507;28;20032;-80
2021/09/17 03:41:12;;;;;;;6.55;4.95;;;21.20;91.90;;;;;;5070616;28;20036;-85
2021/09/17 03:43:38;;;;;;;6.20;5.15;;;21.20;92.10;;;;;;5071168;28;20469;-81
2021/09/17 03:46:04;;;;;;;6.22;5.07;;;21.20;91.90;;;;;;5071311;28;20408;-85
2021/09/17 03:48:29;;;;;;;7.15;5.53;;;21.20;91.90;;;;;;5070975;28;20496;-84
2021/09/17 03:50:55;;;;;;;6.32;5.22;;;21.20;91.90;;;;;;5071583;28;20029;-81
2021/09/17 03:53:21;;;;;;;5.97;4.38;;;21.20;91.80;;;;;;5075209;28;20024;-91
2021/09/17 03:55:46;;;;;;;5.80;4.65;;;21.20;91.80;;;;;;5075164;28;20106;-84
2021/09/17 03:58:12;;;;;;;6.55;5.28;;;21.20;91.90;;;;;;5074348;28;20119;-85
2021/09/17 04:00:38;;;;;;;5.72;4.45;;;21.20;91.90;;;;;;5073875;28;20040;-82
2021/09/17 04:03:04;;;;;;;7.10;5.25;;;21.20;91.80;;;;;;5054845;28;20060;-84
2021/09/17 04:05:31;;;;;;;6.00;4.75;;;21.20;91.80;;;;;;5054324;28;20389;-85
2021/09/17 04:07:56;;;;;;;6.82;5.10;;;21.20;91.80;;;;;;5055439;28;20032;-84
2021/09/17 04:10:22;;;;;;;6.15;5.18;;;21.20;91.80;;;;;;5057991;28;20029;-88
2021/09/17 04:12:48;;;;;;;6.88;5.00;;;21.10;91.80;;;;;;5054244;28;20017;-87
2021/09/17 04:15:14;;;;;;;6.78;4.93;;;21.10;91.80;;;;;;5066525;28;20036;-86
2021/09/17 04:17:41;;;;;;;6.10;5.20;;;21.10;91.70;;;;;;5074464;28;20020;-83
2021/09/17 04:20:08;;;;;;;6.05;5.18;;;21.10;91.70;;;;;;5074339;28;20469;-81
2021/09/17 04:22:34;;;;;;;7.78;4.93;;;21.10;91.70;;;;;;5074585;28;20020;-85
2021/09/17 04:25:00;;;;;;;6.88;5.28;;;21.10;91.70;;;;;;5058267;28;20416;-84
2021/09/17 04:27:25;;;;;;;6.13;5.05;;;21.10;91.70;;;;;;5052801;28;20095;-80
2021/09/17 04:29:52;;;;;;;5.85;4.45;;;21.20;91.70;;;;;;5055131;28;20485;-80
2021/09/17 04:32:18;;;;;;;4.90;4.38;;;21.10;91.70;;;;;;5074222;28;20031;-80
2021/09/17 04:34:44;;;;;;;6.32;4.95;;;21.10;91.60;;;;;;5073476;28;20033;-89
2021/09/17 04:37:09;;;;;;;7.63;4.65;;;21.10;91.60;;;;;;5073980;28;20025;-79
2021/09/17 04:39:35;;;;;;;5.68;4.22;;;21.10;91.60;;;;;;5073502;28;20047;-86
2021/09/17 04:42:02;;;;;;;5.68;4.75;;;21.10;91.60;;;;;;5074052;28;20028;-85
2021/09/17 04:44:28;;;;;;;4.82;4.05;;;21.10;91.50;;;;;;5067563;28;20079;-86
2021/09/17 04:46:54;;;;;;;5.03;4.25;;;21.10;91.50;;;;;;5070605;28;20017;-83
2021/09/17 04:49:19;;;;;;;6.65;4.55;;;21.10;91.50;;;;;;5073428;28;20485;-81
2021/09/17 04:51:45;;;;;;;7.15;4.03;;;21.10;91.50;;;;;;5072538;28;20020;-78
2021/09/17 04:54:12;;;;;;;6.15;4.90;;;21.10;91.50;;;;;;5054237;28;20536;-74
2021/09/17 04:56:39;;;;;;;5.65;4.72;;;21.10;91.50;;;;;;5053470;28;20017;-88
2021/09/17 04:59:05;;;;;;;5.43;4.20;;;21.10;91.40;;;;;;5053691;28;20033;-74
2021/09/17 05:01:31;;;;;;;5.60;4.20;;;21.10;91.40;;;;;;5054464;28;20408;-74
2021/09/17 05:03:57;;;;;;;5.70;4.38;;;21.10;91.40;;;;;;5052360;28;20024;-79
2021/09/17 05:06:23;;;;;;;5.30;3.90;;;21.00;91.30;;;;;;5052983;28;20036;-79
2021/09/17 05:08:48;;;;;;;6.22;4.25;;;21.10;91.30;;;;;;5062778;28;20025;-79
2021/09/17 05:11:14;;;;;;;5.57;4.43;;;21.00;91.30;;;;;;5068830;28;21493;-74
2021/09/17 05:13:40;;;;;;;5.10;4.30;;;21.00;91.30;;;;;;5071967;28;20028;-84
2021/09/17 05:16:05;;;;;;;6.13;4.10;;;21.00;91.30;;;;;;5073541;28;20024;-75
2021/09/17 05:18:31;;;;;;;5.75;4.85;;;21.00;91.20;;;;;;5072346;28;20384;-73
2021/09/17 05:20:57;;;;;;;6.05;4.40;;;21.00;91.20;;;;;;5072451;28;20429;-80
2021/09/17 05:23:23;;;;;;;5.35;3.85;;;21.00;91.20;;;;;;5071183;28;20021;-74
2021/09/17 05:25:48;;;;;;;6.15;4.43;;;21.00;91.20;;;;;;5073169;28;20024;-75
2021/09/17 05:28:14;;;;;;;5.55;4.22;;;21.00;91.10;;;;;;5064842;28;20025;-74
2021/09/17 05:30:39;;;;;;;5.93;4.68;;;21.00;91.20;;;;;;5063888;28;20377;-82
2021/09/17 05:33:05;;;;;;;6.47;4.80;;;21.00;91.10;;;;;;5058368;28;20039;-75
2021/09/17 05:35:32;;;;;;;5.18;4.25;;;21.00;91.10;;;;;;5071793;28;20107;-79
2021/09/17 05:37:57;;;;;;;4.88;4.00;;;21.00;91.10;;;;;;5072327;28;20032;-81
2021/09/17 05:40:23;;;;;;;5.63;3.90;;;21.00;91.00;;;;;;5071169;28;20040;-78
2021/09/17 05:42:49;;;;;;;5.82;4.25;;;21.00;91.10;;;;;;5071865;28;20453;-77
2021/09/17 05:45:15;;;;;;;7.40;4.60;;;21.00;91.00;;;;;;5070347;28;20034;-82
2021/09/17 05:47:44;;;;;;;5.40;4.32;;;21.00;91.00;;;;;;5073544;28;20020;-78
2021/09/17 05:50:11;;;;;;;5.78;4.25;;;20.90;91.00;;;;;;5072999;28;20056;-83
2021/09/17 05:52:37;;;;;;;5.22;4.05;;;20.90;90.90;;;;;;5072856;28;20107;-87
2021/09/17 05:55:05;;;;;;;6.68;4.65;;;21.00;90.90;;;;;;5073649;28;20028;-83
2021/09/17 05:57:30;;;;;;;5.97;4.82;;;20.90;90.90;;;;;;5074487;28;20025;-76
2021/09/17 05:59:56;;;;;;;6.40;4.70;;;20.90;90.90;;;;;;5068327;28;20177;-82
2021/09/17 06:02:22;;;;;;;4.90;3.92;;;20.90;90.90;;;;;;5061324;28;20035;-81
2021/09/17 06:04:47;;;;;;;5.97;4.40;;;20.90;90.80;;;;;;5052109;28;20025;-79
2021/09/17 06:07:14;;;;;;;6.72;4.13;;;20.90;90.80;;;;;;5052043;28;20036;-83
2021/09/17 06:09:39;;;;;;;5.88;4.10;;;20.90;90.80;;;;;;5053247;28;20441;-78
2021/09/17 06:12:05;;;;;;;5.63;3.72;;;20.90;90.80;;;;;;5053446;28;20068;-82
2021/09/17 06:14:32;;;;;;;7.78;4.38;;;20.90;91.30;;;;;;5052924;28;20113;-82
2021/09/17 06:16:57;;;;;;;9.27;4.70;;;20.90;91.00;;;;;;5055074;28;20025;-79
2021/09/17 06:19:24;;;;;;;6.63;4.60;;;20.90;91.00;;;;;;5051611;28;20029;-77
2021/09/17 06:21:49;;;;;;;7.22;4.68;;;21.00;90.90;;;;;;5051992;28;20067;-83
2021/09/17 06:24:16;;;;;;;7.47;5.25;;;21.00;90.80;;;;;;5068775;28;20017;-81
2021/09/17 06:26:41;;;;;;;9.00;5.35;;;21.00;91.20;;;;;;5072412;28;20024;-81
2021/09/17 06:29:08;;;;;;;6.57;4.75;;;21.00;91.40;;;;;;5065307;28;20029;-84
2021/09/17 06:31:35;;;;;;;7.60;5.07;;;21.00;91.30;;;;;;5068500;28;20084;-80
2021/09/17 06:34:02;;;;;;;7.90;4.50;;;21.00;91.20;;;;;;5070594;28;20064;-89
2021/09/17 06:36:27;;;;;;;7.15;4.78;;;21.00;91.30;;;;;;5070774;28;20028;-79
2021/09/17 06:38:55;;;;;;;10.40;5.30;;;21.00;91.40;;;;;;5062595;28;20093;-78
2021/09/17 06:41:20;;;;;;;9.23;4.85;;;21.00;91.30;;;;;;5052230;28;20053;-77
2021/09/17 06:43:46;;;;;;;8.40;4.38;;;21.00;91.40;;;;;;5056907;28;20053;-82
2021/09/17 06:46:12;;;;;;;7.38;4.70;;;21.00;91.30;;;;;;5051459;28;20116;-78
2021/09/17 06:48:37;;;;;;;6.97;4.45;;;21.00;91.30;;;;;;5055616;28;20056;-76
2021/09/17 06:51:03;;;;;;;7.15;4.53;;;21.00;91.30;;;;;;5069623;28;20037;-77
2021/09/17 06:53:29;;;;;;;8.82;4.85;;;21.00;91.30;;;;;;5070294;28;20020;-81
2021/09/17 06:55:54;;;;;;;5.85;4.20;;;21.00;91.30;;;;;;5056887;28;20104;-80
2021/09/17 06:58:20;;;;;;;7.10;5.05;;;21.00;91.30;;;;;;5069619;28;20108;-77
2021/09/17 07:00:46;;;;;;;7.43;5.03;;;21.10;91.20;;;;;;5069233;28;20063;-82
2021/09/17 07:03:11;;;;;;;7.82;5.53;;;21.00;91.20;;;;;;5070453;28;20025;-80
2021/09/17 07:05:38;;;;;;;7.88;5.63;;;21.10;91.10;;;;;;5069494;28;20047;-78
2021/09/17 07:08:08;;;;;;;7.68;5.55;;;21.00;91.10;;;;;;5068044;28;20040;-74
2021/09/17 07:10:36;;;;;;;9.15;5.20;;;21.10;91.00;;;;;;5071157;28;20063;-75
2021/09/17 07:13:03;;;;;;;10.38;5.93;;;21.10;91.00;;;;;;5070811;28;20055;-75
2021/09/17 07:15:28;;;;;;;8.38;5.63;;;21.10;91.00;;;;;;5071032;28;20017;-74
2021/09/17 07:17:54;;;;;;;8.32;5.57;;;21.10;91.00;;;;;;5070787;28;20029;-76
2021/09/17 07:20:20;;;;;;;7.45;5.55;;;21.10;90.90;;;;;;5070850;28;20114;-77
2021/09/17 07:22:46;;;;;;;7.88;4.97;;;21.10;90.90;;;;;;5071667;28;20033;-75
2021/09/17 07:25:12;;;;;;;8.05;5.22;;;21.10;90.80;;;;;;5071393;28;20036;-77
2021/09/17 07:27:38;;;;;;;10.05;5.88;;;21.10;90.80;;;;;;5074419;28;20017;-77
2021/09/17 07:30:05;;;;;;;9.85;6.30;;;21.10;90.80;;;;;;5074901;28;20116;-78
2021/09/17 07:32:31;;;;;;;12.40;6.53;;;21.10;90.70;;;;;;5074389;28;20013;-77
2021/09/17 07:34:57;;;;;;;9.95;6.43;;;21.10;90.80;;;;;;5074962;28;20035;-77
2021/09/17 07:37:23;;;;;;;10.18;6.10;;;21.10;90.70;;;;;;5074173;28;20104;-77
2021/09/17 07:39:49;;;;;;;9.35;6.15;;;21.10;90.70;;;;;;5074091;28;20069;-77
2021/09/17 07:42:15;;;;;;;8.27;6.22;;;21.10;90.60;;;;;;5074346;28;20102;-76
2021/09/17 07:44:41;;;;;;;9.15;5.93;;;21.10;90.60;;;;;;5074179;28;20032;-76
2021/09/17 07:47:07;;;;;;;9.88;6.18;;;21.10;90.60;;;;;;5074805;28;20028;-76
2021/09/17 07:49:33;;;;;;;9.80;5.53;;;21.10;90.50;;;;;;5074665;28;20042;-77
2021/09/17 07:51:59;;;;;;;8.55;5.90;;;21.20;90.50;;;;;;5074299;28;20066;-76
2021/09/17 07:54:25;;;;;;;7.93;5.65;;;21.20;90.50;;;;;;5074722;28;20029;-79
2021/09/17 07:56:51;;;;;;;8.43;6.00;;;21.20;90.50;;;;;;5074295;28;20089;-81
2021/09/17 07:59:17;;;;;;;9.15;6.75;;;21.20;90.50;;;;;;5074692;28;20029;-78
2021/09/17 08:01:43;;;;;;;9.02;6.70;;;21.20;90.50;;;;;;5074099;28;20031;-78
2021/09/17 08:04:08;;;;;;;9.05;5.78;;;21.20;90.50;;;;;;5074085;28;20154;-81
2021/09/17 08:06:34;;;;;;;8.60;5.72;;;21.20;90.50;;;;;;5073950;28;20029;-76
2021/09/17 08:09:00;;;;;;;8.75;6.57;;;21.20;90.40;;;;;;5073790;28;20029;-79
2021/09/17 08:11:26;;;;;;;8.15;6.13;;;21.20;90.40;;;;;;5074356;28;20036;-77
2021/09/17 08:13:52;;;;;;;9.00;6.20;;;21.20;90.40;;;;;;5074300;28;20031;-76
2021/09/17 08:16:18;;;;;;;10.73;6.78;;;21.20;90.40;;;;;;5073766;28;20036;-76
2021/09/17 08:18:45;;;;;;;8.98;6.15;;;21.20;90.30;;;;;;5073826;28;20516;-77
2021/09/17 08:21:11;;;;;;;8.60;5.78;;;21.20;90.30;;;;;;5073217;28;20064;-76
2021/09/17 08:23:37;;;;;;;9.48;6.75;;;21.20;90.40;;;;;;5073133;28;20052;-77
2021/09/17 08:26:03;;;;;;;9.65;6.15;;;21.20;90.40;;;;;;5073681;28;20079;-78
2021/09/17 08:28:30;;;;;;;8.82;5.80;;;21.20;90.40;;;;;;5073931;28;20042;-79
2021/09/17 08:30:57;;;;;;;8.68;6.32;;;21.20;90.30;;;;;;5073359;28;20031;-79
2021/09/17 08:33:23;;;;;;;7.80;5.97;;;21.20;90.40;;;;;;5074013;28;20025;-78
2021/09/17 08:35:49;;;;;;;9.65;5.95;;;21.20;90.40;;;;;;5073618;28;20389;-77
2021/09/17 08:38:15;;;;;;;8.07;5.80;;;21.20;90.30;;;;;;5072007;28;20037;-80
2021/09/17 08:40:44;;;;;;;7.65;6.20;;;21.20;90.30;;;;;;5073548;28;20071;-79
2021/09/17 08:43:09;;;;;;;8.85;6.15;;;21.20;90.20;;;;;;5073581;28;20021;-81
2021/09/17 08:45:35;;;;;;;7.97;5.10;;;21.30;90.20;;;;;;5073908;28;20017;-82
2021/09/17 08:48:02;;;;;;;7.45;5.60;;;21.30;90.20;;;;;;5073573;28;20066;-81
2021/09/17 08:50:29;;;;;;;7.78;5.07;;;21.30;90.20;;;;;;5073641;28;20107;-82
2021/09/17 08:52:55;;;;;;;9.18;5.70;;;;;;;;;;5073432;28;20104;-80
2021/09/17 08:55:21;;;;;;;7.95;5.43;;;;;;;;;;5072417;28;20029;-78
2021/09/17 08:57:48;;;;;;;8.40;5.90;;;;;;;;;;5073799;28;20071;-78
2021/09/17 09:00:26;;;;;;;7.93;5.88;;;;;;;;;;5073342;28;20039;-77
2021/09/17 09:02:54;;;;;;;8.43;6.18;;;;;;;;;;5073435;28;20025;-81
2021/09/17 09:05:28;;;;;;;7.15;5.57;;;;;;;;;;5073720;28;20052;-81
2021/09/17 09:07:54;;;;;;;8.75;5.82;;;;;;;;;;5073274;28;20024;-78
2021/09/17 09:10:20;;;;;;;8.90;5.95;;;;;;;;;;5073227;28;20029;-77
2021/09/17 09:12:54;;;;;;;8.15;6.22;;;;;;;;;;5073084;28;20392;-77
2021/09/17 09:15:25;;;;;;;8.55;5.10;;;;;;;;;;5073279;28;20492;-79
2021/09/17 09:17:51;;;;;;;7.13;5.18;;;;;;;;;;5073405;28;20110;-81
2021/09/17 09:20:40;;;;;;;7.95;5.30;;;;;;;;;;5072388;28;20048;-78
2021/09/17 09:23:06;;;;;;;7.05;5.40;;;;;;;;;;5069688;28;20036;-77
2021/09/17 09:25:32;;;;;;;8.40;5.45;;;;;;;;;;5071255;28;20032;-79
2021/09/17 09:28:15;;;;;;;7.53;6.00;;;;;;;;;;5072849;28;20021;-77
2021/09/17 09:30:41;;;;;;;6.93;5.20;;;;;;;;;;5052812;28;20028;-76
2021/09/17 09:33:27;;;;;;;9.55;5.93;;;;;;;;;;5052824;28;20075;-81
2021/09/17 09:35:53;;;;;;;;;;;;;;;;;;5051936;28;20115;-81
2021/09/17 09:38:42;;;;;;;8.45;5.75;;;;;;;;;;5069612;28;20432;-81
2021/09/17 09:41:11;;;;;;;6.07;4.85;;;;;;;;;;5069172;28;20070;-80
2021/09/17 09:43:42;;;;;;;6.95;5.53;;;;;;;;;;5071890;28;20035;-75
2021/09/17 09:46:23;;;;;;;7.68;5.85;;;;;;;;;;5072455;28;20024;-81
2021/09/17 09:49:03;;;;;;;6.82;5.10;;;;;;;;;;5070855;28;20407;-78
2021/09/17 09:51:30;;;;;;;8.60;5.18;;;;;;;;;;5072318;28;20032;-77
2021/09/17 09:54:00;;;;;;;7.70;5.15;;;;;;;;;;5072336;28;20020;-81
2021/09/17 09:56:26;;;;;;;9.43;5.95;;;;;;;;;;5072321;28;20055;-78
2021/09/17 09:58:52;;;;;;;7.28;5.13;;;;;;;;;;5072120;28;20088;-78
2021/09/17 10:01:20;;;;;;;8.73;5.80;;;;;;;;;;5070363;28;20039;-78
2021/09/17 10:03:46;;;;;;;6.50;5.30;;;;;;;;;;5071589;28;20025;-79
2021/09/17 10:06:14;;;;;;;7.45;5.25;;;;;;;;;;5071726;28;20021;-78
2021/09/17 10:08:40;;;;;;;6.50;5.10;;;;;;;;;;5071548;28;20020;-81
2021/09/17 10:11:06;;;;;;;5.25;4.40;;;;;;;;;;5071784;28;20112;-77
2021/09/17 10:13:32;;;;;;;7.25;5.38;;;;;;;;;;5071820;28;20024;-78
2021/09/17 10:15:59;;;;;;;7.50;5.47;;;;;;;;;;5071284;28;20520;-79
2021/09/17 10:18:25;;;;;;;7.60;5.05;;;;;;;;;;5071542;28;20389;-81
2021/09/17 10:20:51;;;;;;;7.15;5.07;;;;;;;;;;5072768;28;20044;-81
2021/09/17 10:23:25;;;;;;;6.63;5.00;;;;;;;;;;5071615;28;20031;-76
2021/09/17 10:26:01;;;;;;;8.68;5.90;;;;;;;;;;5069118;28;20503;-76
2021/09/17 10:28:27;;;;;;;8.38;6.07;;;;;;;;;;5070068;28;20059;-77
2021/09/17 10:31:08;;;;;;;8.68;7.28;;;;;;;;;;5071905;28;20170;-77
2021/09/17 10:33:34;;;;;;;7.43;5.93;;;;;;;;;;5069913;28;20032;-79
2021/09/17 10:36:00;;;;;;;9.90;6.30;;;;;;;;;;5071726;28;20027;-83
2021/09/17 10:38:27;;;;;;;8.30;5.90;;;;;;;;;;5071714;28;20028;-81
2021/09/17 10:40:54;;;;;;;9.40;6.03;;;;;;;;;;5071139;28;20055;-82
2021/09/17 10:43:22;;;;;;;7.05;5.47;;;;;;;;;;5071410;28;20031;-80
2021/09/17 10:45:50;;;;;;;7.32;5.70;;;;;;;;;;5071598;28;20107;-85
2021/09/17 10:48:18;;;;;;;6.15;5.13;;;;;;;;;;5071585;28;20775;-85
2021/09/17 10:50:49;;;;;;;8.20;5.80;;;;;;;;;;5071630;28;20021;-81
2021/09/17 10:53:35;;;;;;;7.40;5.45;;;;;;;;;;5071641;28;20060;-82
2021/09/17 10:56:04;;;;;;;;;;;;;;;;;;5071723;28;20032;-83
2021/09/17 10:58:31;;;;;;;8.73;6.90;;;;;;;;;;5071572;28;19927;-82
2021/09/17 11:00:58;;;;;;;11.48;7.93;;;;;;;;;;5072328;28;20042;-83
2021/09/17 11:03:37;;;;;;;10.63;7.35;;;;;;;;;;5076119;28;20092;-80
2021/09/17 11:06:21;;;;;;;12.10;7.20;;;;;;;;;;5075309;28;20028;-82
2021/09/17 11:08:52;;;;;;;10.27;6.63;;;;;;;;;;5075425;28;20519;-82
2021/09/17 11:11:21;;;;;;;9.38;6.25;;;;;;;;;;5075445;28;20043;-82
2021/09/17 11:13:47;;;;;;;10.60;5.93;;;21.30;90.20;;;;;;5074026;28;20081;-84
2021/09/17 11:16:17;;;;;;;9.13;5.68;;;22.30;90.50;;;;;;5073797;28;20384;-81
2021/09/17 11:18:54;;;;;;;8.60;5.70;;;22.30;90.70;;;;;;5073998;28;20074;-81
2021/09/17 11:21:21;;;;;;;8.30;5.30;;;22.30;90.70;;;;;;5074465;28;20036;-81
2021/09/17 11:23:51;;;;;;;8.10;5.35;;;22.30;90.80;;;;;;5073532;28;20016;-82
2021/09/17 11:26:19;;;;;;;8.85;5.88;;;22.40;91.00;;;;;;5073497;28;20492;-83
2021/09/17 11:28:57;;;;;;;8.93;5.50;;;22.40;91.00;;;;;;5073587;28;20024;-84
2021/09/17 11:31:25;;;;;;;6.22;4.50;;;22.40;91.00;;;;;;5072510;28;20044;-83
2021/09/17 11:33:58;;;;;;;8.30;5.22;;;22.50;91.00;;;;;;5074355;28;20031;-84
2021/09/17 11:36:38;;;;;;;6.00;4.93;;;22.50;91.00;;;;;;5065160;28;20021;-85
2021/09/17 11:39:22;;;;;;;7.07;4.70;;;22.50;90.90;;;;;;5062981;28;20492;-84
2021/09/17 11:41:59;;;;;;;7.20;4.80;;;22.60;90.90;;;;;;5072604;28;20032;-81
2021/09/17 11:44:44;;;;;;;6.03;4.30;;;22.70;90.80;;;;;;5092942;28;20016;-83
2021/09/17 11:47:23;;;;;;;7.88;4.72;;;22.70;90.70;;;;;;5094510;28;20016;-84
2021/09/17 11:49:53;;;;;;;6.03;3.97;;;22.80;90.60;;;;;;5094316;28;20035;-84
2021/09/17 11:52:20;;;;;;;5.68;4.38;;;;;;;;;;5094004;28;20028;-82
2021/09/17 11:54:56;;;;;;;5.57;4.20;;;;;;;;;;5080501;28;20016;-85
2021/09/17 11:57:22;;;;;;;5.65;4.22;;;;;;;;;;5073867;28;20553;-83
2021/09/17 11:59:49;;;;;;;7.15;4.30;;;;;;;;;;5072427;28;20409;-83
2021/09/17 12:02:17;;;;;;;5.40;3.97;;;;;;;;;;5071103;28;20024;-85
2021/09/17 12:04:54;;;;;;;5.47;3.95;;;;;;;;;;5073483;28;20492;-84
2021/09/17 12:07:20;;;;;;;5.85;4.40;;;;;;;;;;5072578;28;20532;-84
2021/09/17 12:09:46;;;;;;;5.60;3.75;;;;;;;;;;5074209;28;20038;-83
2021/09/17 12:12:13;;;;;;;6.60;3.60;;;;;;;;;;5073970;28;20095;-84
2021/09/17 12:14:40;;;;;;;3.70;3.30;;;;;;;;;;5074447;28;20040;-84
2021/09/17 12:17:07;;;;;;;5.57;3.63;;;;;;;;;;5074209;28;20020;-83
2021/09/17 12:19:59;;;;;;;5.07;3.83;;;22.80;90.60;;;;;;5074273;28;20028;-84
2021/09/17 12:22:32;;;;;;;5.40;3.78;;;23.30;89.70;;;;;;5074150;28;20565;-84
2021/09/17 12:25:09;;;;;;;4.53;3.75;;;23.30;89.70;;;;;;5074975;28;20024;-84
2021/09/17 12:27:35;;;;;;;5.95;4.28;;;;;;;;;;5073769;28;20028;-82
2021/09/17 12:30:12;;;;;;;5.68;4.43;;;;;;;;;;5074183;28;20025;-83
2021/09/17 12:32:38;;;;;;;4.60;3.60;;;;;;;;;;5072751;28;20035;-82
2021/09/17 12:35:12;;;;;;;4.90;3.70;;;;;;;;;;5073977;28;20024;-83
2021/09/17 12:37:39;;;;;;;5.80;3.75;;;;;;;;;;5074015;28;20028;-82
2021/09/17 12:40:13;;;;;;;4.57;3.50;;;;;;;;;;5072640;28;20395;-84
2021/09/17 12:42:40;;;;;;;4.28;3.72;;;;;;;;;;5073617;28;20029;-84
2021/09/17 12:45:08;;;;;;;5.18;3.70;;;;;;;;;;5073692;28;20021;-83
2021/09/17 12:47:34;;;;;;;4.32;3.55;;;;;;;;;;5073695;28;20040;-82
2021/09/17 12:50:13;;;;;;;3.70;3.17;;;;;;;;;;5073895;28;20469;-83
2021/09/17 12:52:40;;;;;;;3.92;3.38;;;;;;;;;;5073472;28;20032;-82
2021/09/17 12:55:25;;;;;;;6.28;3.92;;;;;;;;;;5073618;28;20024;-82
2021/09/17 12:58:02;;;;;;;4.60;3.60;;;23.40;89.70;;;;;;5073841;28;20070;-81
2021/09/17 13:00:29;;;;;;;4.45;3.58;;;24.00;87.70;;;;;;5073387;28;20041;-83
2021/09/17 13:02:56;;;;;;;4.13;3.42;;;24.00;87.70;;;;;;5073445;28;20016;-82
2021/09/17 13:05:22;;;;;;;3.60;3.28;;;24.00;87.50;;;;;;5072935;28;20028;-83
2021/09/17 13:07:48;;;;;;;5.22;3.35;;;24.10;87.40;;;;;;5073100;28;20396;-83
2021/09/17 13:10:14;;;;;;;4.18;3.50;;;24.10;87.20;;;;;;5073169;28;20025;-83
2021/09/17 13:12:39;;;;;;;4.05;3.33;;;24.10;87.10;;;;;;5073354;28;20025;-79
2021/09/17 13:15:06;;;;;;;6.40;4.00;;;24.20;87.10;;;;;;5073244;28;20491;-83